Time;durP1;ratioP1;P1;durP2;ratioP2;P2;SDS_P1;SDS_P2;PMS_P1;PMS_P2;Temp;Humidity;BMP_temperature;BMP_pressure;BME280_temperature;BME280_humidity;BME280_pressure;Samples;Min_cycle;Max_cycle;Signal;HPM_P1;HPM_P2
2021/01/23 00:03:53;;;;;;;9.32;3.85;;;3.20;99.90;;;;;;6648080;88;20614;-73
2021/01/23 00:13:54;;;;;;;7.28;4.15;;;3.10;99.90;;;;;;6648666;88;20620;-72
2021/01/23 00:23:54;;;;;;;7.40;3.45;;;3.00;99.90;;;;;;6648759;89;20605;-73
2021/01/23 00:33:55;;;;;;;10.48;3.30;;;2.90;99.90;;;;;;6647895;88;20200;-72
2021/01/23 00:43:56;;;;;;;6.45;3.55;;;3.00;99.90;;;;;;6645008;88;20185;-72
2021/01/23 00:53:56;;;;;;;7.30;3.62;;;3.00;99.90;;;;;;6647215;89;20192;-72
2021/01/23 01:03:57;;;;;;;7.10;3.35;;;3.00;99.90;;;;;;6648147;88;20282;-72
2021/01/23 01:13:57;;;;;;;7.53;3.35;;;2.90;99.90;;;;;;6644464;88;20232;-72
2021/01/23 01:23:58;;;;;;;9.18;4.05;;;2.70;99.90;;;;;;6647660;89;20614;-73
2021/01/23 01:33:58;;;;;;;9.20;3.78;;;2.70;99.90;;;;;;6647845;88;20222;-72
2021/01/23 01:43:59;;;;;;;7.55;3.78;;;2.70;99.90;;;;;;6649536;88;20192;-72
2021/01/23 01:54:00;;;;;;;5.30;2.97;;;2.60;99.90;;;;;;6651422;88;20200;-72
2021/01/23 02:04:26;;;;;;;7.28;3.33;;;2.60;99.90;;;;;;6648746;89;20181;-72
2021/01/23 02:15:04;;;;;;;9.68;4.30;;;2.60;99.90;;;;;;6645771;88;20194;-72
2021/01/23 02:25:06;;;;;;;8.13;3.85;;;2.60;99.90;;;;;;6651644;88;20177;-72
2021/01/23 02:35:11;;;;;;;11.40;5.32;;;2.60;99.90;;;;;;6652244;88;20362;-72
2021/01/23 02:45:11;;;;;;;13.27;5.03;;;2.50;99.90;;;;;;6656774;88;20222;-73
2021/01/23 02:55:19;;;;;;;9.73;4.35;;;2.40;99.90;;;;;;6650166;88;20708;-72
2021/01/23 03:05:22;;;;;;;9.48;4.50;;;2.50;99.90;;;;;;6649503;88;20683;-72
2021/01/23 03:15:23;;;;;;;8.85;4.85;;;2.40;99.90;;;;;;6649783;88;20718;-72
2021/01/23 03:25:27;;;;;;;9.38;3.92;;;2.30;99.90;;;;;;6649175;88;20177;-72
2021/01/23 03:35:28;;;;;;;8.40;4.12;;;2.50;99.90;;;;;;6648050;88;20188;-72
2021/01/23 03:45:28;;;;;;;8.55;3.90;;;2.60;99.90;;;;;;6648459;88;20213;-72
2021/01/23 03:55:29;;;;;;;9.25;4.20;;;2.60;99.90;;;;;;6644113;88;20318;-72
2021/01/23 04:05:29;;;;;;;8.60;4.73;;;2.50;99.90;;;;;;6648522;88;20180;-72
2021/01/23 04:15:30;;;;;;;10.38;4.75;;;2.30;99.90;;;;;;6648923;88;20512;-72
2021/01/23 04:25:31;;;;;;;12.68;5.28;;;2.20;99.90;;;;;;6648768;88;20357;-72
2021/01/23 04:35:31;;;;;;;8.27;4.20;;;2.10;99.90;;;;;;6647160;88;20196;-72
2021/01/23 04:45:32;;;;;;;7.40;3.65;;;2.00;99.90;;;;;;6648020;88;20234;-72
2021/01/23 04:55:32;;;;;;;11.45;4.32;;;2.10;99.90;;;;;;6648964;88;20189;-72
2021/01/23 05:05:35;;;;;;;6.85;3.95;;;2.10;99.90;;;;;;6650343;88;20181;-73
2021/01/23 05:15:36;;;;;;;8.40;4.10;;;2.10;99.90;;;;;;6649741;88;20247;-72
2021/01/23 05:25:37;;;;;;;8.33;3.80;;;2.20;99.90;;;;;;6650251;88;20723;-72
2021/01/23 05:35:39;;;;;;;8.57;3.53;;;2.30;99.90;;;;;;6659663;78;20552;-73
2021/01/23 05:45:47;;;;;;;5.82;2.97;;;2.40;99.90;;;;;;6745801;88;20590;-73
2021/01/23 05:55:47;;;;;;;6.10;3.05;;;2.60;99.90;;;;;;6736725;88;20223;-73
2021/01/23 06:05:53;;;;;;;7.05;3.10;;;2.70;99.90;;;;;;6737058;88;20224;-73
2021/01/23 06:15:54;;;;;;;6.68;3.37;;;2.80;99.90;;;;;;6730721;88;20269;-73
2021/01/23 06:25:54;;;;;;;7.28;3.20;;;2.90;99.90;;;;;;6737301;88;20193;-73
2021/01/23 06:36:04;;;;;;;8.48;3.67;;;2.90;99.90;;;;;;6733541;87;20263;-73
2021/01/23 06:46:13;;;;;;;7.85;3.50;;;2.90;99.90;;;;;;6737249;88;20665;-73
2021/01/23 06:56:14;;;;;;;7.82;3.60;;;3.00;99.90;;;;;;6737292;88;20188;-73
2021/01/23 07:06:15;;;;;;;9.02;3.15;;;3.00;99.90;;;;;;6737035;88;20378;-73
2021/01/23 07:16:15;;;;;;;6.80;3.25;;;3.00;99.90;;;;;;6736272;88;20197;-73
2021/01/23 07:26:16;;;;;;;9.00;3.97;;;3.10;99.90;;;;;;6734706;88;20291;-73
2021/01/23 07:36:28;;;;;;;8.13;4.15;;;3.20;99.90;;;;;;6733847;88;20192;-73
2021/01/23 07:46:43;;;;;;;7.43;4.10;;;3.10;99.90;;;;;;6729975;88;20786;-73
2021/01/23 07:56:56;;;;;;;13.90;4.70;;;3.10;99.90;;;;;;6736420;88;20303;-73
2021/01/23 08:07:29;;;;;;;11.35;4.80;;;3.30;99.90;;;;;;6735137;88;20202;-73
2021/01/23 08:17:38;;;;;;;12.80;5.37;;;3.50;99.90;;;;;;6735840;88;20220;-74
2021/01/23 08:27:46;;;;;;;13.23;5.82;;;3.50;99.90;;;;;;6735808;88;20310;-74
2021/01/23 08:37:48;;;;;;;11.23;5.50;;;3.70;99.90;;;;;;6734355;88;20192;-73
2021/01/23 08:47:49;;;;;;;12.10;5.18;;;4.20;99.90;;;;;;6735915;88;20209;-73
2021/01/23 08:57:50;;;;;;;12.35;5.55;;;4.40;99.90;;;;;;6736518;88;20198;-73
2021/01/23 09:07:50;;;;;;;12.10;4.85;;;4.60;99.90;;;;;;6737046;88;20774;-74
2021/01/23 09:17:51;;;;;;;9.85;5.03;;;4.80;99.90;;;;;;6734626;88;20964;-74
2021/01/23 09:27:51;;;;;;;10.82;4.95;;;4.90;99.90;;;;;;6738491;88;20199;-74
2021/01/23 09:37:52;;;;;;;10.82;4.82;;;5.10;99.90;;;;;;6738138;88;20670;-75
2021/01/23 09:47:52;;;;;;;9.90;5.40;;;5.30;99.90;;;;;;6731155;88;20214;-75
2021/01/23 09:57:53;;;;;;;10.32;4.60;;;5.60;99.90;;;;;;6735277;88;20181;-75
2021/01/23 10:07:54;;;;;;;7.28;3.78;;;6.10;99.90;;;;;;6731810;88;20206;-75
2021/01/23 10:17:54;;;;;;;6.07;3.00;;;6.90;99.90;;;;;;6738368;88;20189;-74
2021/01/23 10:27:55;;;;;;;5.82;3.20;;;7.20;99.90;;;;;;6739537;88;20513;-75
2021/01/23 10:37:55;;;;;;;5.68;3.15;;;7.50;99.90;;;;;;6744934;87;20229;-76
2021/01/23 10:47:56;;;;;;;6.93;3.87;;;7.60;99.90;;;;;;6740304;88;20204;-76
2021/01/23 10:57:56;;;;;;;7.75;3.75;;;7.80;99.90;;;;;;6733557;88;20177;-76
2021/01/23 11:07:57;;;;;;;6.30;3.45;;;8.00;99.90;;;;;;6734375;88;20278;-76
2021/01/23 11:17:57;;;;;;;6.65;2.78;;;8.40;99.90;;;;;;6731269;88;20201;-76
2021/01/23 11:27:58;;;;;;;7.87;3.07;;;9.60;99.90;;;;;;6736695;88;20922;-75
2021/01/23 11:38:01;;;;;;;2.75;1.35;;;9.60;99.90;;;;;;6736336;77;20543;-76
2021/01/23 11:48:01;;;;;;;2.35;1.23;;;9.30;99.90;;;;;;6731301;88;20210;-75
2021/01/23 11:58:03;;;;;;;3.80;1.10;;;9.50;99.90;;;;;;6723615;88;20200;-75
2021/01/23 12:08:03;;;;;;;2.20;0.80;;;9.70;99.90;;;;;;6731615;88;20222;-75
2021/01/23 12:18:04;;;;;;;2.42;0.80;;;8.60;99.90;;;;;;6722489;88;20563;-75
2021/01/23 12:28:05;;;;;;;1.83;0.90;;;8.30;99.90;;;;;;6731578;88;20211;-76
2021/01/23 12:38:05;;;;;;;2.12;0.70;;;9.10;99.90;;;;;;6723500;88;20203;-79
2021/01/23 12:48:06;;;;;;;1.80;0.70;;;8.90;99.90;;;;;;6718772;88;20197;-76
2021/01/23 12:58:07;;;;;;;1.90;0.75;;;10.10;99.90;;;;;;6718924;88;20291;-76
2021/01/23 13:08:07;;;;;;;2.20;0.70;;;10.30;99.90;;;;;;6724782;88;20271;-77
2021/01/23 13:18:08;;;;;;;2.03;0.70;;;10.60;99.90;;;;;;6723091;88;20344;-75
2021/01/23 13:28:09;;;;;;;1.35;0.70;;;10.20;99.90;;;;;;6724951;88;20245;-76
2021/01/23 13:38:11;;;;;;;3.17;1.15;;;8.80;99.90;;;;;;6727567;88;20359;-76
2021/01/23 13:48:12;;;;;;;1.77;0.73;;;9.60;99.90;;;;;;6721877;88;20216;-75
2021/01/23 13:58:13;;;;;;;2.92;0.95;;;8.80;99.90;;;;;;6737940;88;20319;-77
2021/01/23 14:08:13;;;;;;;2.80;1.10;;;8.90;99.90;;;;;;6725882;88;20748;-75
2021/01/23 14:18:14;;;;;;;2.90;1.20;;;9.50;99.90;;;;;;6720186;88;20174;-75
2021/01/23 14:28:15;;;;;;;2.97;1.23;;;8.70;99.90;;;;;;6723108;88;20579;-76
2021/01/23 14:38:18;;;;;;;4.43;1.55;;;8.00;99.90;;;;;;6722879;88;20266;-74
2021/01/23 14:48:19;;;;;;;2.65;1.40;;;7.50;99.90;;;;;;6726402;88;20212;-75
2021/01/23 14:58:19;;;;;;;3.17;1.17;;;7.50;99.90;;;;;;6726897;88;20320;-75
2021/01/23 15:08:20;;;;;;;3.67;0.90;;;7.30;99.90;;;;;;6727473;88;21036;-74
2021/01/23 15:18:21;;;;;;;5.95;2.70;;;7.10;99.90;;;;;;6727723;88;20250;-74
2021/01/23 15:28:22;;;;;;;5.25;1.37;;;7.20;99.90;;;;;;6725494;88;20253;-75
2021/01/23 15:38:22;;;;;;;5.65;2.12;;;7.10;99.90;;;;;;6725553;88;20315;-75
2021/01/23 15:48:23;;;;;;;2.75;1.08;;;6.80;99.90;;;;;;6723261;88;20787;-76
2021/01/23 15:58:24;;;;;;;1.73;0.77;;;6.70;99.90;;;;;;6727766;88;20660;-77
2021/01/23 16:08:25;;;;;;;3.10;1.27;;;6.20;99.90;;;;;;6723030;88;20201;-75
2021/01/23 16:18:25;;;;;;;3.35;1.00;;;6.00;99.90;;;;;;6719629;88;20186;-76
2021/01/23 16:28:26;;;;;;;3.17;1.20;;;5.90;99.90;;;;;;6721880;88;20201;-75
2021/01/23 16:38:27;;;;;;;7.53;2.67;;;5.90;99.90;;;;;;6722768;88;20201;-74
2021/01/23 16:48:28;;;;;;;5.20;1.90;;;5.80;99.90;;;;;;6728673;88;21070;-74
2021/01/23 16:58:29;;;;;;;5.53;1.83;;;5.90;99.90;;;;;;6729145;88;20271;-74
2021/01/23 17:08:30;;;;;;;5.12;1.77;;;5.80;99.90;;;;;;6727715;88;20474;-75
2021/01/23 17:18:31;;;;;;;6.18;2.00;;;5.90;99.90;;;;;;6727916;88;20193;-73
2021/01/23 17:28:32;;;;;;;4.93;2.05;;;5.90;99.90;;;;;;6731937;88;20190;-73
2021/01/23 17:38:33;;;;;;;4.82;2.20;;;5.80;99.90;;;;;;6715744;77;20694;-73
2021/01/23 17:48:33;;;;;;;6.10;2.05;;;5.80;99.90;;;;;;6661541;88;20218;-73
2021/01/23 17:58:36;;;;;;;4.55;2.15;;;5.80;99.90;;;;;;6656736;88;20196;-74
2021/01/23 18:08:38;;;;;;;5.87;2.62;;;5.80;99.90;;;;;;6650533;88;20227;-75
2021/01/23 18:18:39;;;;;;;4.15;2.15;;;5.80;99.90;;;;;;6651391;88;20185;-77
2021/01/23 18:28:39;;;;;;;7.87;2.70;;;5.70;99.90;;;;;;6648219;88;20234;-75
2021/01/23 18:38:40;;;;;;;4.30;2.25;;;5.70;99.90;;;;;;6647888;89;20614;-76
2021/01/23 18:48:40;;;;;;;4.97;2.40;;;5.60;99.90;;;;;;6656365;88;20233;-76
2021/01/23 18:58:41;;;;;;;6.77;2.30;;;5.60;99.90;;;;;;6648128;89;20287;-74
2021/01/23 19:08:42;;;;;;;6.18;2.30;;;5.10;99.90;;;;;;6662752;88;20681;-76
2021/01/23 19:18:42;;;;;;;4.80;2.17;;;4.90;99.90;;;;;;6649550;88;20729;-75
2021/01/23 19:28:43;;;;;;;4.78;2.33;;;4.80;99.90;;;;;;6647194;88;20195;-77
2021/01/23 19:38:43;;;;;;;5.03;2.40;;;4.80;99.90;;;;;;6652970;88;20272;-77
2021/01/23 19:48:44;;;;;;;4.78;2.47;;;4.80;99.90;;;;;;6643613;88;20191;-76
2021/01/23 19:58:45;;;;;;;4.60;2.53;;;4.30;99.90;;;;;;6656027;88;20224;-76
2021/01/23 20:08:45;;;;;;;5.10;2.42;;;4.10;99.90;;;;;;6645646;89;20550;-77
2021/01/23 20:18:46;;;;;;;5.35;2.83;;;3.80;99.90;;;;;;6655568;88;20193;-77
2021/01/23 20:28:47;;;;;;;5.28;3.22;;;3.90;99.90;;;;;;6665638;88;20297;-79
2021/01/23 20:38:48;;;;;;;6.80;3.37;;;3.90;99.90;;;;;;6665486;88;20649;-78
2021/01/23 20:48:48;;;;;;;7.18;4.28;;;3.90;99.90;;;;;;6669247;88;20210;-78
2021/01/23 20:58:50;;;;;;;9.82;5.50;;;3.90;99.90;;;;;;6668683;88;20213;-77
2021/01/23 21:08:50;;;;;;;8.15;5.68;;;3.80;99.90;;;;;;6671035;88;20638;-76
2021/01/23 21:18:51;;;;;;;7.50;4.68;;;3.70;99.90;;;;;;6647953;89;20332;-78
2021/01/23 21:28:51;;;;;;;9.68;5.35;;;3.60;99.90;;;;;;6635755;89;20251;-77
2021/01/23 21:38:52;;;;;;;9.35;5.15;;;3.60;99.90;;;;;;6635653;89;20312;-76
2021/01/23 21:48:53;;;;;;;11.23;6.05;;;3.50;99.90;;;;;;6646928;88;20247;-77
2021/01/23 21:58:53;;;;;;;11.15;6.28;;;3.40;99.90;;;;;;6650289;88;20243;-76
2021/01/23 22:08:55;;;;;;;9.50;5.80;;;3.40;99.90;;;;;;6647007;88;20213;-77
2021/01/23 22:18:55;;;;;;;12.40;5.90;;;3.40;99.90;;;;;;6646575;89;20204;-74
2021/01/23 22:28:56;;;;;;;11.05;6.03;;;3.50;99.90;;;;;;6646723;89;20193;-75
2021/01/23 22:38:56;;;;;;;11.30;6.20;;;3.60;99.90;;;;;;6654615;88;20253;-74
2021/01/23 22:48:57;;;;;;;13.05;7.07;;;3.50;99.90;;;;;;6648904;88;20706;-75
2021/01/23 22:58:57;;;;;;;10.77;6.35;;;3.60;99.90;;;;;;6655376;89;20189;-74
2021/01/23 23:08:58;;;;;;;11.37;6.83;;;3.60;99.90;;;;;;6648154;88;20205;-74
2021/01/23 23:18:59;;;;;;;11.77;7.45;;;3.70;99.90;;;;;;6660826;88;20492;-74
2021/01/23 23:28:59;;;;;;;12.48;7.53;;;3.60;99.90;;;;;;6647051;88;20599;-76
2021/01/23 23:39:00;;;;;;;14.27;7.68;;;3.50;99.90;;;;;;6662599;88;20766;-75
2021/01/23 23:49:01;;;;;;;13.73;7.72;;;3.60;99.90;;;;;;6649204;89;20269;-75
2021/01/23 23:59:01;;;;;;;11.18;6.43;;;3.70;99.90;;;;;;6662303;88;20262;-75
